createdAt,value
2023-02-11T00:01:46.520Z,101145.13
2023-02-11T00:04:43.180Z,101143.39
2023-02-11T00:07:32.637Z,101139.02
2023-02-11T00:10:19.419Z,101159.04
2023-02-11T00:13:03.974Z,101161.07
2023-02-11T00:15:39.145Z,101160.53
2023-02-11T00:18:12.713Z,101147.17
2023-02-11T00:20:43.311Z,101137.65
2023-02-11T00:23:23.103Z,101132.78
2023-02-11T00:26:05.263Z,101124.96
2023-02-11T00:28:40.230Z,101123.02
2023-02-11T00:31:15.772Z,101119.05
2023-02-11T00:33:53.653Z,101110.39
2023-02-11T00:36:44.012Z,101108.98
2023-02-11T00:39:50.507Z,101096.52
2023-02-11T00:42:49.483Z,101083.69
2023-02-11T00:45:24.205Z,101072.77
2023-02-11T00:47:59.273Z,101067.02
2023-02-11T00:50:58.303Z,101054.75
2023-02-11T00:54:01.823Z,101056.10
2023-02-11T00:56:55.906Z,101066.63
2023-02-11T00:59:36.968Z,101065.90
2023-02-11T01:02:12.049Z,101060.15
2023-02-11T01:05:13.833Z,101053.55
2023-02-11T01:08:15.701Z,101052.17
2023-02-11T01:11:26.936Z,101041.61
2023-02-11T01:14:10.197Z,101037.48
2023-02-11T01:17:12.754Z,101039.88
2023-02-11T01:20:07.832Z,101040.55
2023-02-11T01:22:51.320Z,101039.33
2023-02-11T01:25:31.559Z,101032.77
2023-02-11T01:28:32.473Z,101022.23
2023-02-11T01:31:47.179Z,101014.81
2023-02-11T01:34:37.315Z,101015.50
2023-02-11T01:37:15.078Z,101007.22
2023-02-11T01:39:58.751Z,100998.42
2023-02-11T01:42:29.839Z,100992.73
2023-02-11T01:45:50.110Z,100978.52
2023-02-11T01:48:58.685Z,100974.02
2023-02-11T01:52:36.418Z,100979.39
2023-02-11T01:55:33.690Z,100975.08
2023-02-11T01:58:11.414Z,100982.83
2023-02-11T02:00:50.363Z,100980.94
2023-02-11T02:03:43.335Z,100979.04
2023-02-11T02:06:33.302Z,100973.86
2023-02-11T02:09:41.028Z,100956.61
2023-02-11T02:12:24.866Z,100940.36
2023-02-11T02:15:25.776Z,100925.86
2023-02-11T02:18:19.874Z,100918.41
2023-02-11T02:21:14.294Z,100914.25
2023-02-11T02:24:36.270Z,100918.91
2023-02-11T02:28:13.911Z,100936.05
2023-02-11T02:31:50.241Z,100959.05
2023-02-11T02:34:47.849Z,100961.84
2023-02-11T02:38:08.010Z,100961.19
2023-02-11T02:41:14.149Z,100963.49
2023-02-11T02:44:11.383Z,100961.66
2023-02-11T02:47:01.625Z,100950.34
2023-02-11T02:49:42.731Z,100942.81
2023-02-11T02:52:44.769Z,100940.47
2023-02-11T02:55:13.519Z,100940.55
2023-02-11T02:57:59.617Z,100939.23
2023-02-11T03:00:44.615Z,100943.48
2023-02-11T03:04:13.730Z,100931.97
2023-02-11T03:07:01.543Z,100921.02
2023-02-11T03:10:07.378Z,100922.95
2023-02-11T03:12:55.852Z,100921.84
2023-02-11T03:18:54.041Z,100913.64
2023-02-11T03:21:39.291Z,100904.13
2023-02-11T03:24:20.385Z,100897.89
2023-02-11T03:26:58.446Z,100902.77
2023-02-11T03:30:15.289Z,100901.58
2023-02-11T03:34:10.914Z,100913.04
2023-02-11T03:37:23.430Z,100913.20
2023-02-11T03:40:47.998Z,100909.06
2023-02-11T03:44:00.544Z,100901.64
2023-02-11T03:47:20.468Z,100894.39
2023-02-11T03:50:16.893Z,100886.60
2023-02-11T03:53:17.713Z,100894.41
2023-02-11T03:56:36.582Z,100895.29
2023-02-11T04:02:40.880Z,100883.02
2023-02-11T04:08:38.487Z,100872.30
2023-02-11T04:11:24.462Z,100856.38
2023-02-11T04:13:58.327Z,100834.89
2023-02-11T04:16:36.273Z,100840.06
2023-02-11T04:19:32.511Z,100846.80
2023-02-11T04:22:21.524Z,100845.57
2023-02-11T04:25:04.129Z,100860.44
2023-02-11T04:30:54.107Z,100867.16
2023-02-11T04:33:56.512Z,100870.78
2023-02-11T04:37:27.804Z,100867.52
2023-02-11T04:43:47.763Z,100856.77
2023-02-11T04:47:04.703Z,100853.83
2023-02-11T04:50:15.621Z,100846.73
2023-02-11T04:53:24.460Z,100842.58
2023-02-11T04:56:18.211Z,100840.48
2023-02-11T04:58:56.133Z,100835.13
2023-02-11T05:02:19.090Z,100828.39
2023-02-11T05:05:05.129Z,100827.39
2023-02-11T05:07:49.104Z,100825.67
2023-02-11T05:10:52.871Z,100818.25
2023-02-11T05:13:38.650Z,100813.75
2023-02-11T05:16:14.060Z,100810.30
2023-02-11T05:19:02.264Z,100799.05
2023-02-11T05:21:36.628Z,100801.98
2023-02-11T05:24:09.939Z,100806.13
2023-02-11T05:26:54.320Z,100810.98
2023-02-11T05:29:50.052Z,100807.89
2023-02-11T05:32:31.878Z,100805.48
2023-02-11T05:35:51.043Z,100806.17
2023-02-11T05:38:54.610Z,100805.51
2023-02-11T05:42:02.577Z,100802.56
2023-02-11T05:44:50.772Z,100805.34
2023-02-11T05:47:55.676Z,100792.20
2023-02-11T05:50:31.876Z,100804.33
2023-02-11T05:53:08.266Z,100805.02
2023-02-11T05:55:57.910Z,100800.02
2023-02-11T05:58:31.923Z,100785.99
2023-02-11T06:01:43.812Z,100793.09
2023-02-11T06:04:30.735Z,100784.42
2023-02-11T06:07:55.112Z,100770.95
2023-02-11T06:10:57.393Z,100771.48
2023-02-11T06:13:29.839Z,100769.91
2023-02-11T06:16:04.388Z,100764.20
2023-02-11T06:18:40.169Z,100760.04
2023-02-11T06:21:19.626Z,100760.90
2023-02-11T06:23:49.439Z,100760.39
2023-02-11T06:26:29.546Z,100756.41
2023-02-11T06:29:29.392Z,100755.90
2023-02-11T06:36:52.831Z,100739.98
2023-02-11T06:40:12.948Z,100742.41
2023-02-11T06:43:26.362Z,100751.77
2023-02-11T06:46:24.298Z,100764.23
2023-02-11T06:49:29.802Z,100775.51
2023-02-11T06:52:29.579Z,100777.44
2023-02-11T06:55:21.311Z,100777.46
2023-02-11T06:59:24.827Z,100775.58
2023-02-11T07:02:56.215Z,100770.91
2023-02-11T07:05:47.802Z,100766.25
2023-02-11T07:08:16.509Z,100768.86
2023-02-11T07:10:44.959Z,100769.58
2023-02-11T07:13:15.257Z,100781.39
2023-02-11T07:15:57.080Z,100781.91
2023-02-11T07:18:33.903Z,100786.92
2023-02-11T07:21:11.742Z,100793.17
2023-02-11T07:23:42.561Z,100793.69
2023-02-11T07:26:15.393Z,100788.14
2023-02-11T07:28:44.741Z,100784.17
2023-02-11T07:31:30.324Z,100783.84
2023-02-11T07:34:02.305Z,100784.72
2023-02-11T07:36:34.943Z,100786.80
2023-02-11T07:39:04.966Z,100787.14
2023-02-11T07:41:37.858Z,100788.70
2023-02-11T07:44:08.154Z,100781.27
2023-02-11T07:46:45.911Z,100775.02
2023-02-11T07:49:15.784Z,100760.13
2023-02-11T07:51:48.334Z,100751.29
2023-02-11T07:54:20.534Z,100753.36
2023-02-11T07:56:49.614Z,100751.45
2023-02-11T07:59:18.104Z,100745.91
2023-02-11T08:01:55.527Z,100750.07
2023-02-11T08:04:26.333Z,100757.70
2023-02-11T08:06:59.080Z,100764.80
2023-02-11T08:09:32.194Z,100754.91
2023-02-11T08:12:05.263Z,100757.87
2023-02-11T08:14:35.005Z,100749.39
2023-02-11T08:17:04.230Z,100747.48
2023-02-11T08:19:35.189Z,100744.35
2023-02-11T08:22:07.033Z,100742.79
2023-02-11T08:24:40.013Z,100739.50
2023-02-11T08:27:08.553Z,100739.84
2023-02-11T08:29:37.670Z,100740.89
2023-02-11T08:32:06.204Z,100747.81
2023-02-11T08:35:38.706Z,100757.02
2023-02-11T08:38:07.218Z,100757.02
2023-02-11T08:40:36.816Z,100763.95
2023-02-11T08:43:07.955Z,100772.61
2023-02-11T08:45:38.014Z,100773.84
2023-02-11T08:48:09.111Z,100777.14
2023-02-11T08:50:40.937Z,100778.69
2023-02-11T08:53:09.708Z,100784.94
2023-02-11T08:55:38.212Z,100783.91
2023-02-11T08:58:10.765Z,100773.49
2023-02-11T09:00:42.083Z,100773.67
2023-02-11T09:03:10.921Z,100778.01
2023-02-11T09:05:48.527Z,100774.54
2023-02-11T09:08:31.787Z,100777.32
2023-02-11T09:11:02.142Z,100769.33
2023-02-11T09:13:34.621Z,100767.41
2023-02-11T09:16:05.608Z,100766.55
2023-02-11T09:18:35.213Z,100755.79
2023-02-11T09:21:09.370Z,100752.85
2023-02-11T09:23:38.736Z,100743.99
2023-02-11T09:26:15.240Z,100740.01
2023-02-11T09:28:45.161Z,100736.73
2023-02-11T09:31:20.538Z,100731.34
2023-02-11T09:33:52.434Z,100715.20
2023-02-11T09:36:26.374Z,100717.63
2023-02-11T09:38:59.439Z,100722.46
2023-02-11T09:41:50.128Z,100715.69
2023-02-11T09:44:39.921Z,100723.48
2023-02-11T09:47:34.050Z,100732.84
2023-02-11T09:50:18.423Z,100739.78
2023-02-11T09:52:52.919Z,100755.74
2023-02-11T09:55:23.200Z,100760.25
2023-02-11T09:57:56.968Z,100760.59
2023-02-11T10:00:37.227Z,100776.89
2023-02-11T10:03:24.418Z,100790.77
2023-02-11T10:06:21.003Z,100790.26
2023-02-11T10:08:49.704Z,100781.73
2023-02-11T10:11:34.947Z,100781.73
2023-02-11T10:14:24.495Z,100777.91
2023-02-11T10:17:22.844Z,100764.38
2023-02-11T10:20:15.843Z,100753.60
2023-02-11T10:23:02.920Z,100751.16
2023-02-11T10:26:00.260Z,100746.29
2023-02-11T10:28:39.949Z,100748.52
2023-02-11T10:31:23.192Z,100758.23
2023-02-11T10:34:03.490Z,100762.91
2023-02-11T10:36:38.908Z,100763.23
2023-02-11T10:39:19.337Z,100759.23
2023-02-11T10:42:11.227Z,100747.77
2023-02-11T10:44:53.094Z,100742.20
2023-02-11T10:47:27.995Z,100749.31
2023-02-11T10:50:03.887Z,100751.04
2023-02-11T10:52:33.051Z,100756.08
2023-02-11T10:55:06.105Z,100756.42
2023-02-11T10:57:37.785Z,100748.79
2023-02-11T11:00:34.424Z,100747.40
2023-02-11T11:03:27.947Z,100739.41
2023-02-11T11:06:04.012Z,100729.86
2023-02-11T11:08:41.658Z,100730.91
2023-02-11T11:11:16.103Z,100724.65
2023-02-11T11:13:53.705Z,100723.29
2023-02-11T11:16:25.610Z,100712.70
2023-02-11T11:19:16.365Z,100697.10
2023-02-11T11:21:51.180Z,100692.75
2023-02-11T11:24:32.221Z,100690.84
2023-02-11T11:27:04.072Z,100698.14
2023-02-11T11:29:37.393Z,100700.73
2023-02-11T11:32:20.728Z,100697.92
2023-02-11T11:34:55.920Z,100693.05
2023-02-11T11:37:33.433Z,100690.27
2023-02-11T11:40:10.184Z,100686.08
2023-02-11T11:42:40.457Z,100684.32
2023-02-11T11:45:23.145Z,100685.68
2023-02-11T11:47:58.987Z,100688.78
2023-02-11T11:50:48.061Z,100696.39
2023-02-11T11:53:45.960Z,100695.67
2023-02-11T11:56:22.515Z,100699.66
2023-02-11T11:58:55.091Z,100700.67
2023-02-11T12:02:18.770Z,100705.17
2023-02-11T12:05:29.141Z,100709.66
2023-02-11T12:08:37.692Z,100712.44
2023-02-11T12:11:16.652Z,100702.88
2023-02-11T12:14:23.417Z,100703.05
2023-02-11T12:17:06.572Z,100679.59
2023-02-11T12:19:45.850Z,100676.96
2023-02-11T12:22:23.689Z,100683.75
2023-02-11T12:25:13.717Z,100678.00
2023-02-11T12:28:33.929Z,100678.52
2023-02-11T12:31:16.387Z,100685.63
2023-02-11T12:34:21.102Z,100696.55
2023-02-11T12:36:57.675Z,100690.48
2023-02-11T12:39:53.979Z,100680.55
2023-02-11T12:43:07.143Z,100668.20
2023-02-11T12:46:02.872Z,100667.00
2023-02-11T12:48:45.931Z,100668.71
2023-02-11T12:51:51.582Z,100666.62
2023-02-11T12:54:33.400Z,100670.28
2023-02-11T12:57:17.948Z,100672.56
2023-02-11T13:00:03.177Z,100665.98
2023-02-11T13:02:38.000Z,100652.25
2023-02-11T13:05:35.543Z,100652.60
2023-02-11T13:08:59.707Z,100658.00
2023-02-11T13:11:40.829Z,100653.83
2023-02-11T13:14:28.812Z,100651.56
2023-02-11T13:17:04.654Z,100650.01
2023-02-11T13:19:47.932Z,100646.71
2023-02-11T13:22:37.894Z,100643.07
2023-02-11T13:25:25.127Z,100645.33
2023-02-11T13:28:58.769Z,100636.83
2023-02-11T13:31:50.789Z,100628.16
2023-02-11T13:35:07.422Z,100639.12
2023-02-11T13:38:24.774Z,100640.69
2023-02-11T13:41:40.580Z,100638.79
2023-02-11T13:44:51.720Z,100634.45
2023-02-11T13:53:16.180Z,100655.86
2023-02-11T13:56:52.614Z,100659.88
2023-02-11T14:00:36.547Z,100661.28
2023-02-11T14:03:51.483Z,100666.34
2023-02-11T14:06:50.735Z,100662.70
2023-02-11T14:09:49.090Z,100666.35
2023-02-11T14:12:55.028Z,100661.64
2023-02-11T14:17:11.727Z,100666.50
2023-02-11T14:21:14.350Z,100679.02
2023-02-11T14:24:50.973Z,100677.09
2023-02-11T14:27:52.321Z,100676.41
2023-02-11T14:35:07.247Z,100688.75
2023-02-11T14:39:06.912Z,100693.27
2023-02-11T14:42:58.427Z,100714.29
2023-02-11T14:45:33.122Z,100714.98
2023-02-11T14:48:24.511Z,100717.58
2023-02-11T14:51:16.374Z,100722.80
2023-02-11T14:54:49.540Z,100732.35
2023-02-11T14:57:54.044Z,100726.80
2023-02-11T15:00:44.426Z,100722.62
2023-02-11T15:08:04.730Z,100734.27
2023-02-11T15:11:42.895Z,100735.30
2023-02-11T15:15:49.716Z,100745.02
2023-02-11T15:19:05.296Z,100729.20
2023-02-11T15:22:40.864Z,100737.54
2023-02-11T15:25:55.708Z,100730.05
2023-02-11T15:29:29.604Z,100731.59
2023-02-11T15:32:59.581Z,100738.89
2023-02-11T15:36:47.301Z,100737.49
2023-02-11T15:40:30.350Z,100744.77
2023-02-11T15:43:54.562Z,100747.89
2023-02-11T15:47:25.859Z,100760.59
2023-02-11T15:51:09.419Z,100763.20
2023-02-11T15:54:23.767Z,100769.44
2023-02-11T15:57:24.178Z,100766.30
2023-02-11T16:00:53.486Z,100769.94
2023-02-11T16:03:59.158Z,100773.05
2023-02-11T16:07:19.578Z,100775.30
2023-02-11T16:11:09.425Z,100781.05
2023-02-11T16:15:02.007Z,100789.91
2023-02-11T16:22:05.122Z,100788.83
2023-02-11T16:26:03.900Z,100795.60
2023-02-11T16:29:53.238Z,100804.63
2023-02-11T16:33:16.527Z,100814.00
2023-02-11T16:37:00.259Z,100816.24
2023-02-11T16:39:53.325Z,100823.73
2023-02-11T16:43:06.044Z,100820.75
2023-02-11T16:46:42.973Z,100827.66
2023-02-11T16:49:52.450Z,100830.39
2023-02-11T16:53:02.746Z,100837.86
2023-02-11T16:56:24.510Z,100845.69
2023-02-11T16:59:59.662Z,100855.22
2023-02-11T17:06:33.762Z,100851.58
2023-02-11T17:14:15.912Z,100857.66
2023-02-11T17:17:41.898Z,100870.16
2023-02-11T17:21:10.726Z,100874.48
2023-02-11T17:24:19.144Z,100873.80
2023-02-11T17:27:23.704Z,100876.06
2023-02-11T17:34:25.376Z,100891.86
2023-02-11T17:52:07.126Z,100907.63
2023-02-11T17:54:49.090Z,100917.54
2023-02-11T17:58:34.409Z,100922.40
2023-02-11T18:01:53.744Z,100924.98
2023-02-11T18:05:16.989Z,100932.81
2023-02-11T18:08:25.931Z,100939.42
2023-02-11T18:11:14.009Z,100948.30
2023-02-11T18:14:03.104Z,100948.30
2023-02-11T18:16:39.540Z,100947.75
2023-02-11T18:19:08.911Z,100947.38
2023-02-11T18:21:48.932Z,100946.13
2023-02-11T18:24:34.742Z,100951.12
2023-02-11T18:27:03.977Z,100954.77
2023-02-11T18:29:46.040Z,100959.27
2023-02-11T18:32:18.327Z,100958.95
2023-02-11T18:34:47.092Z,100963.48
2023-02-11T18:37:25.811Z,100965.24
2023-02-11T18:40:08.987Z,100970.83
2023-02-11T18:42:43.990Z,100972.56
2023-02-11T18:45:48.812Z,100971.88
2023-02-11T18:48:55.584Z,100979.87
2023-02-11T18:51:39.066Z,100986.83
2023-02-11T18:54:14.898Z,100989.95
2023-02-11T18:57:32.007Z,100994.30
2023-02-11T19:01:14.098Z,100996.56
2023-02-11T19:04:31.046Z,101003.54
2023-02-11T19:07:12.690Z,101009.98
2023-02-11T19:10:17.006Z,101015.89
2023-02-11T19:12:46.335Z,101007.70
2023-02-11T19:15:18.961Z,101002.32
2023-02-11T19:17:52.809Z,101011.36
2023-02-11T19:20:33.754Z,101021.29
2023-02-11T19:23:05.202Z,101024.77
2023-02-11T19:25:41.702Z,101023.03
2023-02-11T19:28:35.819Z,101027.90
2023-02-11T19:31:24.093Z,101035.58
2023-02-11T19:34:03.713Z,101026.00
2023-02-11T19:39:36.459Z,101027.38
2023-02-11T19:42:13.739Z,101027.73
2023-02-11T19:45:11.243Z,101033.29
2023-02-11T19:47:49.469Z,101038.86
2023-02-11T19:50:18.837Z,101042.70
2023-02-11T19:53:21.156Z,101047.58
2023-02-11T19:56:11.452Z,101044.80
2023-02-11T19:59:26.444Z,101042.70
2023-02-11T20:02:02.395Z,101043.39
2023-02-11T20:04:40.685Z,101047.25
2023-02-11T20:07:19.221Z,101054.89
2023-02-11T20:09:58.517Z,101057.52
2023-02-11T20:12:27.318Z,101059.94
2023-02-11T20:15:53.938Z,101058.55
2023-02-11T20:19:12.372Z,101055.25
2023-02-11T20:22:10.352Z,101056.82
2023-02-11T20:24:45.223Z,101058.72
2023-02-11T20:27:26.804Z,101059.23
2023-02-11T20:30:24.364Z,101072.46
2023-02-11T20:33:37.175Z,101074.38
2023-02-11T20:36:18.947Z,101078.89
2023-02-11T20:39:05.059Z,101078.56
2023-02-11T20:41:49.369Z,101094.39
2023-02-11T20:44:33.923Z,101101.18
2023-02-11T20:47:09.432Z,101103.79
2023-02-11T20:49:51.399Z,101105.88
2023-02-11T20:52:50.716Z,101107.09
2023-02-11T20:55:29.445Z,101110.23
2023-02-11T20:58:44.220Z,101115.63
2023-02-11T21:01:21.405Z,101123.63
2023-02-11T21:04:37.592Z,101126.42
2023-02-11T21:07:39.808Z,101132.34
2023-02-11T21:10:24.364Z,101132.88
2023-02-11T21:14:44.526Z,101131.13
2023-02-11T21:17:45.744Z,101137.38
2023-02-11T21:20:42.097Z,101145.04
2023-02-11T21:24:13.176Z,101141.38
2023-02-11T21:27:07.410Z,101141.56
2023-02-11T21:30:13.063Z,101150.61
2023-02-11T21:32:45.647Z,101156.55
2023-02-11T21:35:43.286Z,101162.27
2023-02-11T21:39:10.842Z,101163.85
2023-02-11T21:42:58.511Z,101165.58
2023-02-11T21:47:48.305Z,101169.94
2023-02-11T21:50:17.396Z,101178.14
2023-02-11T21:54:24.002Z,101189.79
2023-02-11T21:57:39.022Z,101206.67
2023-02-11T22:01:29.425Z,101214.68
2023-02-11T22:04:38.773Z,101217.81
2023-02-11T22:08:40.765Z,101218.33
2023-02-11T22:12:10.892Z,101218.85
2023-02-11T22:14:56.802Z,101222.16
2023-02-11T22:17:58.797Z,101221.11
2023-02-11T22:21:07.581Z,101221.82
2023-02-11T22:23:43.307Z,101224.24
2023-02-11T22:26:55.518Z,101222.16
2023-02-11T22:30:25.411Z,101221.12
2023-02-11T22:33:39.485Z,101232.10
2023-02-11T22:36:52.604Z,101231.91
2023-02-11T22:40:01.071Z,101235.05
2023-02-11T22:42:50.514Z,101243.04
2023-02-11T22:45:54.441Z,101244.28
2023-02-11T22:48:57.327Z,101243.39
2023-02-11T22:51:35.737Z,101253.31
2023-02-11T22:54:24.704Z,101253.67
2023-02-11T22:56:53.887Z,101252.09
2023-02-11T22:59:37.826Z,101255.23
2023-02-11T23:02:14.821Z,101257.50
2023-02-11T23:04:49.879Z,101259.75
2023-02-11T23:07:20.596Z,101261.67
2023-02-11T23:09:54.383Z,101261.34
2023-02-11T23:12:28.692Z,101265.34
2023-02-11T23:15:09.956Z,101264.64
2023-02-11T23:17:47.307Z,101269.17
2023-02-11T23:20:33.490Z,101263.42
2023-02-11T23:23:16.686Z,101266.90
2023-02-11T23:26:02.659Z,101267.08
2023-02-11T23:29:11.594Z,101270.21
2023-02-11T23:31:59.159Z,101269.35
2023-02-11T23:35:04.747Z,101268.83
2023-02-11T23:38:08.514Z,101266.04
2023-02-11T23:41:11.276Z,101262.05
2023-02-11T23:44:03.815Z,101272.49
2023-02-11T23:47:27.075Z,101276.66
2023-02-11T23:50:38.750Z,101279.96
2023-02-11T23:54:08.734Z,101284.14
2023-02-11T23:57:00.110Z,101298.05
